Time;durP1;ratioP1;P1;durP2;ratioP2;P2;SDS_P1;SDS_P2;PMS_P1;PMS_P2;Temp;Humidity;BMP_temperature;BMP_pressure;BME280_temperature;BME280_humidity;BME280_pressure;Samples;Min_cycle;Max_cycle;Signal;HPM_P1;HPM_P2
2022/01/04 00:00:16;;;;;;;27.40;15.70;;;;;;;1.78;84.13;97062.45;110199;1248;59696;-71
2022/01/04 00:03:06;;;;;;;26.00;18.40;;;;;;;1.76;84.23;97059.79;110130;1249;59738;-71
2022/01/04 00:05:36;;;;;;;;;;;;;;;1.69;84.50;97066.58;110006;1252;71526;-68
2022/01/04 00:08:09;;;;;;;24.30;16.30;;;;;;;1.62;84.48;97066.04;110118;1249;67888;-72
2022/01/04 00:10:39;;;;;;;21.20;14.20;;;;;;;1.57;84.12;97064.70;110188;1248;68570;-68
2022/01/04 00:13:22;;;;;;;20.30;15.60;;;;;;;1.52;84.20;97064.25;110196;1248;59678;-70
2022/01/04 00:15:56;;;;;;;17.60;12.40;;;;;;;1.43;84.38;97064.23;110169;1248;59718;-71
2022/01/04 00:18:26;;;;;;;16.70;12.20;;;;;;;1.38;84.44;97068.45;109967;1250;70568;-70
2022/01/04 00:20:55;;;;;;;15.80;12.60;;;;;;;1.33;84.50;97071.05;109925;1250;68652;-68
2022/01/04 00:23:24;;;;;;;12.50;10.10;;;;;;;1.28;84.39;97074.00;109952;1250;69297;-68
2022/01/04 00:25:54;;;;;;;15.20;12.00;;;;;;;1.24;84.41;97071.94;109960;1250;59662;-67
2022/01/04 00:28:23;;;;;;;12.20;9.40;;;;;;;1.22;84.48;97075.95;110015;1250;59767;-69
2022/01/04 00:30:53;;;;;;;16.80;10.90;;;;;;;1.22;84.62;97079.02;109927;1250;70847;-70
2022/01/04 00:33:23;;;;;;;15.00;11.80;;;;;;;1.23;85.02;97085.69;109997;1250;68103;-67
2022/01/04 00:35:52;;;;;;;14.90;11.10;;;;;;;1.23;85.37;97085.20;110007;1250;69698;-68
2022/01/04 00:38:21;;;;;;;12.00;9.40;;;;;;;1.22;84.93;97086.23;110175;1249;59731;-71
2022/01/04 00:40:51;;;;;;;10.80;7.80;;;;;;;1.23;84.69;97085.38;110048;1249;59750;-69
2022/01/04 00:43:20;;;;;;;13.80;9.20;;;;;;;1.26;84.36;97085.59;110143;1249;71494;-71
2022/01/04 00:45:50;;;;;;;16.50;11.30;;;;;;;1.33;84.36;97083.09;110064;1250;68663;-69
2022/01/04 00:50:49;;;;;;;18.50;13.00;;;;;;;1.41;84.59;97076.36;109943;1250;59826;-70
2022/01/04 00:53:19;;;;;;;20.50;15.00;;;;;;;1.44;84.34;97076.06;109927;1250;59647;-69
2022/01/04 00:55:48;;;;;;;19.70;12.40;;;;;;;1.46;84.50;97075.80;109901;1250;71359;-71
2022/01/04 00:58:18;;;;;;;15.80;11.50;;;;;;;1.50;84.37;97073.27;110010;1250;68629;-70
2022/01/04 01:00:47;;;;;;;19.10;15.60;;;;;;;1.50;84.43;97075.65;110207;1250;67570;-71
2022/01/04 01:03:16;;;;;;;13.00;9.70;;;;;;;1.51;85.06;97068.73;110142;1250;59744;-71
2022/01/04 01:05:45;;;;;;;15.40;11.00;;;;;;;1.55;84.52;97069.95;110207;1247;59753;-71
2022/01/04 01:08:15;;;;;;;13.00;10.40;;;;;;;1.57;84.53;97076.24;110241;1247;71597;-71
2022/01/04 01:10:48;;;;;;;16.40;12.50;;;;;;;1.59;84.50;97084.40;110273;1247;67921;-70
2022/01/04 01:13:18;;;;;;;14.90;11.30;;;;;;;1.62;84.60;97079.80;110140;1249;69354;-70
2022/01/04 01:15:47;;;;;;;16.40;10.30;;;;;;;1.64;84.89;97077.98;109922;1249;60191;-72
2022/01/04 01:18:18;;;;;;;16.50;10.70;;;;;;;1.68;84.51;97066.48;110247;1249;59669;-71
2022/01/04 01:20:49;;;;;;;16.90;12.80;;;;;;;1.76;84.47;97070.93;110146;1249;71598;-71
2022/01/04 01:23:20;;;;;;;16.00;12.30;;;;;;;1.77;84.53;97074.35;110192;1248;67806;-72
2022/01/04 01:25:51;;;;;;;14.30;10.80;;;;;;;1.76;84.93;97074.02;109925;1249;69378;-72
2022/01/04 01:28:20;;;;;;;21.90;14.20;;;;;;;1.79;84.59;97069.26;110270;1247;59677;-70
2022/01/04 01:30:50;;;;;;;15.10;10.90;;;;;;;1.83;84.30;97066.89;110213;1247;59706;-74
2022/01/04 01:33:20;;;;;;;23.10;17.70;;;;;;;1.84;84.23;97070.25;110022;1247;71597;-70
2022/01/04 01:35:49;;;;;;;15.10;11.50;;;;;;;1.82;84.35;97074.83;110206;1247;67957;-71
2022/01/04 01:38:19;;;;;;;13.60;10.10;;;;;;;1.82;84.38;97076.54;110078;1247;68481;-71
2022/01/04 01:40:49;;;;;;;19.20;14.20;;;;;;;1.82;84.32;97073.41;110070;1247;59742;-70
2022/01/04 01:43:19;;;;;;;13.00;9.60;;;;;;;1.83;84.45;97068.91;110175;1249;59683;-70
2022/01/04 01:45:49;;;;;;;16.60;10.70;;;;;;;1.84;84.03;97065.27;109952;1250;71487;-72
2022/01/04 01:48:19;;;;;;;15.90;11.80;;;;;;;1.83;83.76;97061.70;110189;1247;67982;-71
2022/01/04 01:50:49;;;;;;;18.20;13.20;;;;;;;1.81;83.59;97061.77;110126;1249;68313;-72
2022/01/04 01:53:19;;;;;;;19.00;13.80;;;;;;;1.77;83.86;97058.19;110185;1249;59790;-72
2022/01/04 01:55:49;;;;;;;16.30;12.90;;;;;;;1.76;83.90;97054.61;110175;1247;59683;-71
2022/01/04 01:58:18;;;;;;;;;;;;;;;1.75;84.15;97054.82;110276;1247;71512;-74
2022/01/04 02:00:47;;;;;;;12.60;8.70;;;;;;;1.76;84.00;97056.35;110203;1247;68581;-73
2022/01/04 02:03:17;;;;;;;11.80;8.90;;;;;;;1.77;83.97;97057.70;110244;1247;69301;-70
2022/01/04 02:05:47;;;;;;;18.00;13.80;;;;;;;1.78;83.98;97061.58;110154;1247;59697;-71
2022/01/04 02:08:18;;;;;;;16.60;12.30;;;;;;;1.77;84.55;97063.35;110164;1247;59675;-70
2022/01/04 02:10:51;;;;;;;12.20;8.90;;;;;;;1.76;84.25;97059.76;109736;1250;71875;-67
2022/01/04 02:13:21;;;;;;;10.10;9.10;;;;;;;1.74;84.08;97058.83;110031;1250;68551;-71
2022/01/04 02:15:53;;;;;;;10.60;9.20;;;;;;;1.70;84.07;97058.31;109986;1247;69455;-72
2022/01/04 02:18:23;;;;;;;14.00;10.60;;;;;;;1.66;84.13;97055.21;110193;1247;59668;-70
2022/01/04 02:20:53;;;;;;;12.60;10.50;;;;;;;1.62;84.20;97051.80;110053;1250;59678;-69
2022/01/04 02:23:24;;;;;;;11.80;9.70;;;;;;;1.58;84.18;97050.10;110042;1250;70872;-71
2022/01/04 02:25:53;;;;;;;16.60;12.70;;;;;;;1.54;84.28;97045.27;110112;1249;67892;-69
2022/01/04 02:28:24;;;;;;;16.20;11.50;;;;;;;1.50;84.30;97045.94;110151;1247;68629;-67
2022/01/04 02:30:55;;;;;;;22.10;14.40;;;;;;;1.47;84.31;97041.24;109980;1250;59658;-70
2022/01/04 02:33:25;;;;;;;17.20;12.40;;;;;;;1.43;84.26;97043.83;109970;1249;59712;-70
2022/01/04 02:35:54;;;;;;;20.40;13.00;;;;;;;1.41;84.53;97038.58;110166;1248;69908;-71
2022/01/04 02:38:23;;;;;;;19.00;13.40;;;;;;;1.37;84.66;97037.07;110166;1247;68186;-71
2022/01/04 02:40:52;;;;;;;15.60;10.80;;;;;;;1.31;84.78;97040.90;110188;1246;68344;-69
2022/01/04 02:43:21;;;;;;;14.10;9.70;;;;;;;1.27;84.77;97045.34;110219;1247;59675;-71
2022/01/04 02:45:50;;;;;;;22.80;14.30;;;;;;;1.21;84.89;97044.42;110259;1247;59624;-71
2022/01/04 02:48:20;;;;;;;18.30;12.10;;;;;;;1.14;85.86;97049.35;110231;1247;70679;-73
2022/01/04 02:50:52;;;;;;;17.80;13.80;;;;;;;1.08;86.01;97048.71;110214;1247;67974;-69
2022/01/04 02:53:22;;;;;;;16.40;12.20;;;;;;;1.03;86.05;97050.14;110232;1247;69449;-72
2022/01/04 02:55:52;;;;;;;13.30;9.10;;;;;;;0.98;85.75;97050.84;110281;1247;59695;-68
2022/01/04 02:58:22;;;;;;;;;;;;;;;0.94;85.72;97051.34;109919;1250;59754;-70
2022/01/04 03:00:51;;;;;;;10.40;9.10;;;;;;;0.91;85.88;97044.23;109969;1250;71488;-70
2022/01/04 03:03:20;;;;;;;11.80;9.60;;;;;;;0.89;85.88;97042.11;110177;1249;67847;-71
2022/01/04 03:05:50;;;;;;;12.10;8.40;;;;;;;0.87;85.77;97039.45;110166;1249;68466;-70
2022/01/04 03:08:19;;;;;;;10.90;7.80;;;;;;;0.85;85.38;97039.88;110256;1247;59743;-72
2022/01/04 03:10:49;;;;;;;11.70;7.50;;;;;;;0.84;85.24;97040.08;110034;1250;59611;-71
2022/01/04 03:13:18;;;;;;;12.50;9.30;;;;;;;0.85;85.49;97038.30;110150;1248;71612;-71
2022/01/04 03:15:47;;;;;;;11.80;7.90;;;;;;;0.85;85.79;97035.08;110188;1247;67920;-71
2022/01/04 03:18:17;;;;;;;9.00;7.30;;;;;;;0.82;86.10;97034.65;110200;1247;69770;-71
2022/01/04 03:20:47;;;;;;;14.50;10.80;;;;;;;0.82;85.95;97032.59;110042;1250;59683;-72
2022/01/04 03:23:17;;;;;;;16.60;13.00;;;;;;;0.78;86.13;97033.13;110235;1247;59702;-70
2022/01/04 03:25:47;;;;;;;17.10;12.70;;;;;;;0.73;86.23;97030.73;110192;1247;71513;-70
2022/01/04 03:28:19;;;;;;;12.60;9.70;;;;;;;0.68;86.46;97026.13;110001;1250;68511;-70
2022/01/04 03:30:50;;;;;;;13.20;10.20;;;;;;;0.63;86.20;97023.75;110214;1247;69401;-71
2022/01/04 03:33:19;;;;;;;21.30;14.40;;;;;;;0.59;86.41;97023.59;110207;1247;59706;-71
2022/01/04 03:35:48;;;;;;;18.20;12.90;;;;;;;0.56;86.92;97020.79;110209;1248;59628;-68
2022/01/04 03:38:19;;;;;;;14.80;11.30;;;;;;;0.55;87.16;97018.58;110222;1247;71378;-72
2022/01/04 03:40:48;;;;;;;;;;;;;;;0.55;86.99;97017.21;110257;1247;67801;-71
2022/01/04 03:43:17;;;;;;;18.70;13.20;;;;;;;0.55;87.21;97016.36;110228;1247;69485;-71
2022/01/04 03:45:46;;;;;;;14.60;10.30;;;;;;;0.56;87.78;97020.79;110196;1247;59680;-70
2022/01/04 03:48:16;;;;;;;12.00;8.60;;;;;;;0.59;87.43;97016.05;110217;1246;59678;-72
2022/01/04 03:50:46;;;;;;;17.90;11.40;;;;;;;0.64;87.16;97015.83;110205;1247;71434;-73
2022/01/04 03:53:15;;;;;;;16.10;12.50;;;;;;;0.69;87.46;97014.43;110165;1245;68459;-71
2022/01/04 03:55:45;;;;;;;18.90;13.60;;;;;;;0.70;87.79;97009.58;109993;1250;69301;-72
2022/01/04 03:58:14;;;;;;;10.40;7.80;;;;;;;0.73;87.91;97010.50;109976;1249;59754;-72
2022/01/04 04:00:44;;;;;;;13.10;8.80;;;;;;;0.75;87.31;97008.34;110165;1249;59749;-71
2022/01/04 04:03:13;;;;;;;17.10;11.80;;;;;;;0.76;87.18;97013.11;110035;1250;70727;-73
2022/01/04 04:05:43;;;;;;;15.30;11.10;;;;;;;0.72;87.39;97013.27;109960;1250;68556;-71
2022/01/04 04:08:12;;;;;;;12.80;9.00;;;;;;;0.68;87.61;97012.95;110237;1247;68569;-69
2022/01/04 04:10:41;;;;;;;13.00;9.20;;;;;;;0.68;87.51;97010.70;110167;1250;59693;-70
2022/01/04 04:13:11;;;;;;;21.20;14.10;;;;;;;0.68;87.59;97010.00;110190;1247;59694;-72
2022/01/04 04:15:41;;;;;;;23.30;14.60;;;;;;;0.63;88.19;97007.98;110181;1247;71487;-68
2022/01/04 04:18:11;;;;;;;17.60;11.50;;;;;;;0.59;88.56;97005.59;110134;1247;68531;-72
2022/01/04 04:20:42;;;;;;;16.40;10.40;;;;;;;0.59;88.17;97005.55;110101;1249;69429;-71
2022/01/04 04:23:11;;;;;;;;;;;;;;;0.63;88.42;97001.98;110183;1247;60151;-70
2022/01/04 04:25:41;;;;;;;16.70;10.20;;;;;;;0.62;87.99;97001.67;110224;1247;59681;-71
2022/01/04 04:28:10;;;;;;;17.60;11.50;;;;;;;0.58;87.54;97008.70;110199;1247;71596;-68
2022/01/04 04:30:40;;;;;;;18.60;12.10;;;;;;;0.47;88.02;97001.25;110177;1248;68411;-70
2022/01/04 04:33:09;;;;;;;18.60;12.20;;;;;;;0.37;88.22;96996.14;110145;1249;68647;-69
2022/01/04 04:35:39;;;;;;;11.80;8.30;;;;;;;0.33;88.30;97000.05;110152;1250;59669;-70
2022/01/04 04:38:09;;;;;;;20.80;14.80;;;;;;;0.32;88.37;97000.59;110189;1247;59755;-70
2022/01/04 04:40:38;;;;;;;16.70;11.40;;;;;;;0.31;88.90;97000.84;110108;1249;70889;-70
2022/01/04 04:43:07;;;;;;;20.70;13.30;;;;;;;0.28;88.65;97002.51;110177;1250;68650;-69
2022/01/04 04:45:38;;;;;;;25.00;15.30;;;;;;;0.25;88.77;97009.80;110153;1248;67772;-71
2022/01/04 04:48:14;;;;;;;30.30;19.90;;;;;;;0.23;88.72;97008.66;109905;1250;59735;-72
2022/01/04 04:50:46;;;;;;;31.80;18.70;;;;;;;0.23;88.98;97012.96;109734;1250;59720;-74
2022/01/04 04:53:20;;;;;;;18.50;12.50;;;;;;;0.25;88.60;97011.50;109821;1250;71470;-74
2022/01/04 04:55:54;;;;;;;19.20;13.50;;;;;;;0.32;88.36;97008.87;109884;1250;68713;-73
2022/01/04 04:58:33;;;;;;;23.50;15.30;;;;;;;0.38;88.85;97005.52;110030;1250;69400;-71
2022/01/04 05:01:05;;;;;;;;;;;;;;;0.44;89.17;97005.45;110073;1250;59677;-73
2022/01/04 05:03:43;;;;;;;13.40;9.20;;;;;;;0.51;88.79;97000.23;109952;1250;59651;-71
2022/01/04 05:06:20;;;;;;;17.40;13.20;;;;;;;0.58;88.35;96993.44;109911;1251;71837;-69
2022/01/04 05:09:01;;;;;;;20.60;14.30;;;;;;;0.60;89.05;96992.67;109973;1250;67683;-73
2022/01/04 05:11:33;;;;;;;24.50;15.10;;;;;;;0.57;89.08;96990.21;109840;1250;69352;-72
2022/01/04 05:14:05;;;;;;;23.80;16.10;;;;;;;0.54;89.35;96992.40;109967;1249;59759;-73
2022/01/04 05:16:38;;;;;;;19.00;14.20;;;;;;;0.50;89.33;96993.04;109950;1250;59762;-72
2022/01/04 05:19:13;;;;;;;22.40;14.10;;;;;;;0.47;89.22;96995.92;109995;1250;70715;-74
2022/01/04 05:21:44;;;;;;;14.80;9.10;;;;;;;0.45;89.44;96996.50;109656;1252;67837;-72
2022/01/04 05:24:13;;;;;;;18.60;11.30;;;;;;;0.51;88.90;96994.05;109933;1250;69424;-71
2022/01/04 05:26:43;;;;;;;25.30;15.70;;;;;;;0.56;89.67;96997.81;109943;1250;59769;-73
2022/01/04 05:29:12;;;;;;;24.00;14.60;;;;;;;0.58;90.85;96991.88;109944;1250;59705;-72
2022/01/04 05:31:44;;;;;;;16.60;11.90;;;;;;;0.62;90.59;96994.66;110112;1250;71733;-73
2022/01/04 05:34:16;;;;;;;13.90;10.20;;;;;;;0.68;90.12;96991.50;109962;1250;68638;-70
2022/01/04 05:36:48;;;;;;;22.30;14.50;;;;;;;0.73;89.73;96982.73;109789;1250;68875;-72
2022/01/04 05:39:21;;;;;;;17.30;13.10;;;;;;;0.75;89.86;96982.98;109613;1253;59738;-75
2022/01/04 05:41:55;;;;;;;16.80;11.60;;;;;;;0.76;89.83;96990.66;109762;1251;59653;-72
2022/01/04 05:44:31;;;;;;;17.80;12.80;;;;;;;0.74;89.69;96986.94;109741;1250;70719;-72
2022/01/04 05:47:07;;;;;;;17.20;11.70;;;;;;;0.75;89.71;96986.08;109802;1250;68621;-71
2022/01/04 05:49:44;;;;;;;19.60;13.80;;;;;;;0.77;89.41;96985.30;109724;1251;69697;-73
2022/01/04 05:52:19;;;;;;;18.40;13.00;;;;;;;0.75;89.70;96991.20;109736;1250;59706;-72
2022/01/04 05:54:53;;;;;;;16.80;12.60;;;;;;;0.74;89.55;96985.75;109926;1250;59122;-72
2022/01/04 05:57:26;;;;;;;14.30;11.50;;;;;;;0.76;89.49;96980.54;109868;1251;71632;-74
2022/01/04 06:00:02;;;;;;;16.80;11.70;;;;;;;0.80;89.36;96980.73;110047;1250;68679;-73
2022/01/04 06:02:40;;;;;;;15.80;11.40;;;;;;;0.83;89.48;96987.09;109763;1250;68420;-72
2022/01/04 06:05:12;;;;;;;14.40;11.10;;;;;;;0.88;89.36;96986.57;110036;1250;59791;-71
2022/01/04 06:07:45;;;;;;;14.70;9.40;;;;;;;0.92;89.16;96986.20;110008;1250;59674;-72
2022/01/04 06:10:37;;;;;;;9.60;7.00;;;;;;;0.98;89.00;96988.71;109823;1250;71433;-71
2022/01/04 06:16:18;;;;;;;16.60;11.30;;;;;;;1.10;88.69;96979.11;109997;1250;70083;-70
2022/01/04 06:18:55;;;;;;;16.80;11.30;;;;;;;1.16;88.65;96973.22;110151;1250;59721;-70
2022/01/04 06:21:27;;;;;;;21.70;15.90;;;;;;;1.21;88.63;96979.18;110002;1250;59685;-72
2022/01/04 06:23:59;;;;;;;18.70;14.30;;;;;;;1.26;88.67;96981.70;109732;1250;71962;-74
2022/01/04 06:26:32;;;;;;;14.60;10.90;;;;;;;1.33;88.68;96976.63;109943;1250;67785;-72
2022/01/04 06:29:08;;;;;;;18.00;14.00;;;;;;;1.39;88.54;96978.05;109984;1250;68707;-73
2022/01/04 06:31:42;;;;;;;16.00;10.60;;;;;;;1.45;88.81;96982.43;109816;1250;59752;-73
2022/01/04 06:34:18;;;;;;;18.70;12.30;;;;;;;1.51;88.65;96981.31;109786;1251;59688;-72
2022/01/04 06:36:56;;;;;;;16.60;12.10;;;;;;;1.58;88.49;96977.96;109751;1247;71331;-73
2022/01/04 06:39:43;;;;;;;18.60;13.80;;;;;;;1.65;88.39;96979.02;110086;1250;68906;-72
2022/01/04 06:42:16;;;;;;;16.10;12.70;;;;;;;1.72;88.32;96982.65;109650;1251;68794;-71
2022/01/04 06:44:50;;;;;;;17.30;12.90;;;;;;;1.78;88.24;96981.31;109901;1247;59725;-71
2022/01/04 06:47:21;;;;;;;14.20;10.20;;;;;;;1.85;88.08;96985.15;110013;1250;59743;-71
2022/01/04 06:49:50;;;;;;;19.40;14.30;;;;;;;1.92;88.19;96981.40;109921;1250;72185;-68
2022/01/04 06:52:19;;;;;;;12.10;9.20;;;;;;;1.98;88.12;96984.75;110081;1250;68476;-71
2022/01/04 06:54:49;;;;;;;15.60;12.50;;;;;;;2.05;87.94;96980.64;110109;1248;69569;-71
2022/01/04 06:57:24;;;;;;;17.10;12.10;;;;;;;2.14;87.71;96978.70;109879;1250;59736;-71
2022/01/04 06:59:53;;;;;;;26.10;19.30;;;;;;;2.20;87.36;96981.51;110225;1248;59726;-71
2022/01/04 07:02:23;;;;;;;31.60;23.20;;;;;;;2.19;87.09;96975.87;110219;1247;71242;-69
2022/01/04 07:04:52;;;;;;;28.90;23.20;;;;;;;2.17;86.90;96973.73;110149;1249;68945;-70
2022/01/04 07:07:23;;;;;;;28.30;19.20;;;;;;;2.16;86.93;96976.88;109933;1250;69262;-68
2022/01/04 07:09:52;;;;;;;27.70;19.00;;;;;;;2.18;87.10;96975.20;109985;1250;59665;-71
2022/01/04 07:12:21;;;;;;;24.60;16.30;;;;;;;2.43;87.73;96978.04;109819;1250;59689;-67
2022/01/04 07:14:50;;;;;;;17.30;11.90;;;;;;;2.86;87.67;96982.34;110094;1250;71069;-71
2022/01/04 07:17:19;;;;;;;16.60;12.00;;;;;;;3.37;86.48;96982.70;109941;1250;68596;-69
2022/01/04 07:19:49;;;;;;;22.90;15.00;;;;;;;3.98;85.14;96978.31;110031;1250;68664;-71
2022/01/04 07:22:18;;;;;;;14.80;11.00;;;;;;;4.66;84.22;96981.55;110055;1250;59707;-72
2022/01/04 07:24:47;;;;;;;15.70;11.70;;;;;;;5.29;84.72;96986.89;110087;1250;59660;-70
2022/01/04 07:27:16;;;;;;;15.10;11.30;;;;;;;5.91;83.11;96983.90;110149;1247;72249;-71
2022/01/04 07:29:44;;;;;;;13.80;9.60;;;;;;;6.55;82.48;96988.94;110121;1247;69010;-70
2022/01/04 07:32:13;;;;;;;20.20;15.70;;;;;;;7.18;81.83;96986.11;110137;1247;68715;-70
2022/01/04 07:34:42;;;;;;;17.40;12.50;;;;;;;7.75;79.76;96987.30;110181;1247;60120;-70
2022/01/04 07:37:14;;;;;;;21.30;14.80;;;;;;;8.31;78.85;96978.58;109968;1250;59823;-68
2022/01/04 07:39:43;;;;;;;23.90;19.60;;;;;;;8.71;75.58;96972.43;110067;1250;72258;-67
2022/01/04 07:42:12;;;;;;;23.20;17.60;;;;;;;8.96;72.75;96967.52;110086;1250;68583;-70
2022/01/04 07:44:43;;;;;;;27.20;19.60;;;;;;;9.17;74.01;96961.99;110203;1248;69560;-67
2022/01/04 07:47:12;;;;;;;27.90;20.70;;;;;;;9.41;74.41;96961.75;110043;1250;59689;-69
2022/01/04 07:49:40;;;;;;;25.80;18.70;;;;;;;9.49;73.70;96963.39;110112;1250;59827;-70
2022/01/04 07:52:09;;;;;;;29.70;21.90;;;;;;;9.40;71.89;96962.51;110073;1250;72296;-70
2022/01/04 07:54:38;;;;;;;26.10;19.30;;;;;;;9.23;71.97;96964.83;110104;1250;68584;-71
2022/01/04 07:57:07;;;;;;;23.50;18.40;;;;;;;9.01;68.86;96953.95;110123;1250;69590;-71
2022/01/04 07:59:36;;;;;;;20.30;15.20;;;;;;;8.75;70.59;96952.56;110127;1250;59730;-69
2022/01/04 08:02:05;;;;;;;19.50;15.20;;;;;;;8.55;71.22;96947.39;109977;1250;59689;-70
2022/01/04 08:04:35;;;;;;;26.00;20.20;;;;;;;8.47;71.48;96935.83;110076;1250;70768;-68
2022/01/04 08:07:04;;;;;;;19.70;16.00;;;;;;;8.30;70.04;96934.56;110125;1249;68208;-71
2022/01/04 08:09:33;;;;;;;21.70;17.00;;;;;;;8.13;70.29;96935.21;110086;1250;69459;-67
2022/01/04 08:12:04;;;;;;;19.80;16.10;;;;;;;8.04;70.58;96932.88;110052;1250;59706;-71
2022/01/04 08:14:33;;;;;;;24.40;18.20;;;;;;;7.98;71.75;96936.98;110178;1250;59686;-71
2022/01/04 08:17:06;;;;;;;27.90;21.70;;;;;;;7.94;71.01;96937.43;109988;1250;71108;-70
2022/01/04 08:19:36;;;;;;;25.10;19.20;;;;;;;7.97;72.40;96941.24;110191;1247;68011;-73
2022/01/04 08:22:06;;;;;;;25.40;19.80;;;;;;;8.07;71.27;96951.10;110140;1250;68813;-70
2022/01/04 08:24:34;;;;;;;21.80;15.90;;;;;;;8.30;71.88;96959.01;109998;1250;60067;-71
2022/01/04 08:27:04;;;;;;;16.40;13.80;;;;;;;8.65;71.56;96960.70;110164;1248;59680;-70
2022/01/04 08:29:33;;;;;;;17.50;15.00;;;;;;;8.87;69.71;96951.47;110192;1250;72226;-71
2022/01/04 08:32:03;;;;;;;24.30;18.60;;;;;;;8.95;70.18;96948.80;110125;1250;67869;-70
2022/01/04 08:34:32;;;;;;;23.80;17.70;;;;;;;9.01;68.44;96943.30;110166;1248;69601;-68
2022/01/04 08:37:01;;;;;;;25.50;18.10;;;;;;;9.09;69.38;96937.33;110087;1250;59701;-73
2022/01/04 08:39:30;;;;;;;28.90;21.30;;;;;;;9.14;67.99;96947.21;110144;1250;59685;-68
2022/01/04 08:42:01;;;;;;;22.30;16.80;;;;;;;9.43;68.04;96946.93;110146;1248;72177;-70
2022/01/04 08:44:32;;;;;;;24.40;18.60;;;;;;;9.85;67.12;96934.91;110168;1248;68174;-69
2022/01/04 08:47:01;;;;;;;25.80;18.60;;;;;;;10.13;65.91;96926.08;110188;1250;69487;-71
2022/01/04 08:49:31;;;;;;;27.80;20.20;;;;;;;10.88;64.56;96927.79;109929;1250;59720;-72
2022/01/04 08:52:01;;;;;;;19.60;14.50;;;;;;;11.74;61.36;96920.55;110161;1248;59744;-71
2022/01/04 08:54:30;;;;;;;20.20;15.10;;;;;;;12.40;59.77;96916.46;110011;1249;71323;-71
2022/01/04 08:57:00;;;;;;;17.90;12.40;;;;;;;13.01;57.33;96916.77;110101;1250;67818;-69
2022/01/04 08:59:29;;;;;;;15.80;10.80;;;;;;;13.46;55.56;96909.90;109970;1250;69747;-70
2022/01/04 09:01:59;;;;;;;13.40;9.80;;;;;;;13.85;53.25;96905.58;110238;1250;59769;-68
2022/01/04 09:04:28;;;;;;;10.60;7.80;;;;;;;14.32;54.35;96907.39;110186;1250;59672;-71
2022/01/04 09:06:57;;;;;;;6.10;5.10;;;;;;;14.93;51.67;96910.64;110044;1250;71574;-69
2022/01/04 09:09:26;;;;;;;6.70;5.30;;;;;;;15.39;49.07;96907.10;109919;1250;68712;-70
2022/01/04 09:12:16;;;;;;;7.70;5.70;;;;;;;15.89;48.71;96905.20;109892;1250;255714;-71
2022/01/04 09:15:04;;;;;;;8.90;5.20;;;;;;;16.32;47.03;96895.56;110147;1250;59716;-70
2022/01/04 09:20:28;;;;;;;7.90;5.20;;;;;;;17.34;45.11;96886.06;109877;1250;72198;-71
2022/01/04 09:22:57;;;;;;;5.60;4.30;;;;;;;17.66;44.54;96877.29;110001;1251;67892;-71
2022/01/04 09:25:26;;;;;;;6.80;4.50;;;;;;;17.87;43.49;96876.24;110098;1250;70135;-71
2022/01/04 09:27:56;;;;;;;7.90;5.40;;;;;;;18.15;42.14;96874.52;110049;1250;59655;-68
2022/01/04 09:30:25;;;;;;;8.10;5.40;;;;;;;18.45;42.90;96875.16;110047;1250;59685;-70
2022/01/04 09:32:54;;;;;;;8.90;5.10;;;;;;;18.71;41.55;96864.98;110034;1250;72268;-71
2022/01/04 09:35:23;;;;;;;7.50;5.30;;;;;;;18.80;40.13;96859.37;110056;1250;67891;-70
2022/01/04 09:37:54;;;;;;;6.50;4.00;;;;;;;18.87;40.45;96855.80;109934;1250;69497;-68
2022/01/04 09:40:24;;;;;;;6.00;3.70;;;;;;;19.05;40.55;96854.02;109975;1250;59728;-69
2022/01/04 09:42:52;;;;;;;5.50;4.30;;;;;;;19.18;37.78;96854.86;109951;1250;59751;-72
2022/01/04 09:45:22;;;;;;;6.90;4.70;;;;;;;19.36;38.38;96853.28;110165;1250;70742;-69
2022/01/04 09:47:51;;;;;;;5.90;4.10;;;;;;;19.50;37.63;96847.88;110140;1250;68114;-71
2022/01/04 09:50:21;;;;;;;4.70;3.60;;;;;;;19.55;37.71;96854.52;109891;1250;69597;-68
2022/01/04 09:52:50;;;;;;;6.80;4.00;;;;;;;19.77;37.44;96855.34;110117;1250;59749;-66
2022/01/04 09:55:20;;;;;;;4.10;3.00;;;;;;;19.99;36.59;96844.35;110166;1250;59630;-66
2022/01/04 09:57:48;;;;;;;;;;;;;;;20.10;35.47;96843.23;110156;1250;71908;-68
2022/01/04 10:00:18;;;;;;;4.50;2.70;;;;;;;19.77;34.26;96837.08;110173;1250;68727;-68
2022/01/04 10:02:50;;;;;;;4.70;3.50;;;;;;;19.97;35.31;96817.55;110007;1250;69519;-69
2022/01/04 10:05:21;;;;;;;5.60;3.20;;;;;;;20.37;35.34;96809.56;110205;1250;59704;-69
2022/01/04 10:08:01;;;;;;;4.00;2.70;;;;;;;20.43;33.86;96808.86;110165;1250;59694;-68
2022/01/04 10:10:30;;;;;;;6.30;4.00;;;;;;;20.30;32.61;96806.23;110055;1251;71869;-68
2022/01/04 10:13:11;;;;;;;4.60;2.80;;;;;;;20.53;33.57;96804.05;109919;1250;67952;-67
2022/01/04 10:15:47;;;;;;;2.90;2.30;;;;;;;20.31;33.14;96808.60;109986;1250;69417;-69
2022/01/04 10:18:21;;;;;;;4.40;2.50;;;;;;;20.41;33.60;96812.44;109961;1250;59682;-70
2022/01/04 10:21:02;;;;;;;3.90;2.20;;;;;;;20.79;33.24;96809.00;110061;1250;59641;-74
2022/01/04 10:23:31;;;;;;;4.30;2.80;;;;;;;21.29;32.43;96805.39;110161;1250;70783;-73
2022/01/04 10:26:06;;;;;;;5.60;3.20;;;;;;;21.21;31.30;96795.52;109798;1251;67944;-71
2022/01/04 10:28:41;;;;;;;5.10;2.90;;;;;;;20.73;31.75;96786.38;110157;1250;68456;-70
2022/01/04 10:31:16;;;;;;;6.10;3.10;;;;;;;19.81;32.67;96778.96;110161;1249;59748;-71
2022/01/04 10:33:52;;;;;;;5.80;3.30;;;;;;;18.94;33.92;96777.45;110158;1250;59714;-72
2022/01/04 10:36:21;;;;;;;5.40;3.50;;;;;;;18.77;34.98;96768.30;109946;1250;72228;-71
2022/01/04 10:38:51;;;;;;;4.10;3.10;;;;;;;18.77;34.94;96754.73;110153;1248;67900;-72
2022/01/04 10:41:25;;;;;;;7.30;3.50;;;;;;;18.54;34.31;96752.05;109996;1251;69491;-71
2022/01/04 10:44:04;;;;;;;7.20;3.60;;;;;;;18.48;35.02;96752.02;110130;1250;59654;-71
2022/01/04 10:46:42;;;;;;;5.90;3.80;;;;;;;18.49;35.34;96751.95;110135;1250;59641;-71
2022/01/04 10:49:14;;;;;;;5.90;4.00;;;;;;;18.41;35.90;96753.73;110192;1250;72207;-73
2022/01/04 10:51:45;;;;;;;5.70;4.10;;;;;;;18.27;36.04;96752.17;110166;1250;68620;-72
2022/01/04 10:54:18;;;;;;;5.90;3.60;;;;;;;17.66;36.78;96746.90;110141;1249;67691;-72
2022/01/04 10:56:47;;;;;;;5.20;3.90;;;;;;;17.26;37.63;96739.37;110135;1250;59669;-72
2022/01/04 10:59:16;;;;;;;6.20;4.00;;;;;;;16.98;38.29;96735.58;110199;1250;59673;-72
2022/01/04 11:01:47;;;;;;;4.40;2.80;;;;;;;16.50;39.35;96731.95;110168;1250;71523;-72
2022/01/04 11:04:19;;;;;;;4.50;3.10;;;;;;;15.85;40.36;96731.40;109991;1250;68846;-72
2022/01/04 11:06:49;;;;;;;5.00;3.10;;;;;;;15.37;41.40;96729.85;110035;1251;69363;-70
2022/01/04 11:09:22;;;;;;;5.70;3.50;;;;;;;14.69;42.49;96729.37;110178;1250;59695;-71
2022/01/04 11:11:51;;;;;;;8.30;3.90;;;;;;;14.46;43.36;96727.02;110162;1249;59621;-73
2022/01/04 11:14:21;;;;;;;4.80;3.50;;;;;;;14.05;43.69;96729.34;110162;1250;71539;-72
2022/01/04 11:16:52;;;;;;;6.80;3.70;;;;;;;13.80;44.82;96729.33;110224;1250;68765;-71
2022/01/04 11:19:22;;;;;;;3.30;2.70;;;;;;;13.74;44.89;96724.66;110178;1250;69450;-73
2022/01/04 11:21:52;;;;;;;4.60;3.20;;;;;;;13.74;45.49;96719.38;110159;1250;59696;-73
2022/01/04 11:24:25;;;;;;;7.60;4.80;;;;;;;13.64;45.87;96712.50;110173;1250;59139;-72
2022/01/04 11:26:59;;;;;;;5.30;3.10;;;;;;;13.45;45.94;96706.80;110164;1249;71728;-69
2022/01/04 11:29:33;;;;;;;7.60;4.20;;;;;;;13.03;46.96;96705.17;110010;1250;68715;-68
2022/01/04 11:32:08;;;;;;;6.50;3.60;;;;;;;12.59;48.04;96706.27;110115;1250;70012;-74
2022/01/04 11:35:04;;;;;;;7.10;4.10;;;;;;;12.23;49.35;96699.79;110120;1250;59761;-72
2022/01/04 11:37:33;;;;;;;7.60;3.80;;;;;;;11.81;50.53;96700.02;110161;1247;59696;-72
2022/01/04 11:40:22;;;;;;;5.00;3.70;;;;;;;11.72;51.17;96696.27;110163;1249;70759;-71
2022/01/04 11:42:53;;;;;;;7.60;4.10;;;;;;;11.69;51.23;96693.27;109844;1251;67777;-72
2022/01/04 11:45:41;;;;;;;5.10;3.30;;;;;;;11.77;51.33;96693.80;110188;1250;70141;-75
2022/01/04 11:48:43;;;;;;;6.50;3.40;;;;;;;11.72;51.36;96690.28;110142;1250;59690;-70